createdAt,value
2019-03-22T00:00:44.545Z,10.77
2019-03-22T00:01:44.586Z,10.76
2019-03-22T00:02:44.513Z,10.76
2019-03-22T00:03:44.502Z,10.74
2019-03-22T00:04:44.491Z,10.73
2019-03-22T00:05:44.484Z,10.73
2019-03-22T00:06:44.481Z,10.71
2019-03-22T00:07:44.459Z,10.70
2019-03-22T00:08:44.448Z,10.69
2019-03-22T00:09:44.437Z,10.68
2019-03-22T00:10:44.426Z,10.67
2019-03-22T00:11:44.416Z,10.66
2019-03-22T00:12:44.417Z,10.67
2019-03-22T00:13:44.397Z,10.65
2019-03-22T00:14:44.389Z,10.65
2019-03-22T00:15:44.373Z,10.64
2019-03-22T00:16:44.362Z,10.64
2019-03-22T00:17:44.354Z,10.62
2019-03-22T00:18:44.350Z,10.62
2019-03-22T00:19:44.329Z,10.63
2019-03-22T00:20:44.318Z,10.62
2019-03-22T00:21:44.307Z,10.59
2019-03-22T00:22:44.296Z,10.60
2019-03-22T00:23:44.285Z,10.59
2019-03-22T00:24:44.286Z,10.59
2019-03-22T00:25:44.263Z,10.57
2019-03-22T00:26:44.252Z,10.55
2019-03-22T00:27:44.241Z,10.55
2019-03-22T00:28:44.229Z,10.54
2019-03-22T00:29:44.218Z,10.55
2019-03-22T00:30:44.231Z,10.54
2019-03-22T00:31:44.199Z,10.51
2019-03-22T00:32:44.185Z,10.52
2019-03-22T00:33:44.175Z,10.50
2019-03-22T00:34:44.163Z,10.49
2019-03-22T00:35:44.153Z,10.49
2019-03-22T00:36:44.154Z,10.48
2019-03-22T00:37:44.131Z,10.46
2019-03-22T00:38:44.121Z,10.47
2019-03-22T00:39:44.111Z,10.45
2019-03-22T00:40:44.100Z,10.45
2019-03-22T00:41:44.093Z,10.44
2019-03-22T00:42:44.088Z,10.45
2019-03-22T00:43:44.066Z,10.44
2019-03-22T00:44:44.060Z,10.42
2019-03-22T00:45:44.044Z,10.42
2019-03-22T00:46:44.034Z,10.41
2019-03-22T00:47:44.021Z,10.41
2019-03-22T00:48:44.020Z,10.41
2019-03-22T00:49:43.999Z,10.42
2019-03-22T00:50:43.988Z,10.40
2019-03-22T00:51:43.978Z,10.40
2019-03-22T00:52:43.966Z,10.40
2019-03-22T00:53:44.030Z,10.38
2019-03-22T00:54:43.959Z,10.38
2019-03-22T00:55:43.934Z,10.37
2019-03-22T00:56:43.935Z,10.36
2019-03-22T00:57:43.912Z,10.35
2019-03-22T00:58:43.914Z,10.34
2019-03-22T00:59:43.890Z,10.32
2019-03-22T01:00:43.891Z,10.33
2019-03-22T01:01:43.871Z,10.31
2019-03-22T01:02:43.859Z,10.30
2019-03-22T01:03:43.851Z,10.28
2019-03-22T01:04:43.839Z,10.27
2019-03-22T01:05:43.825Z,10.24
2019-03-22T01:06:43.827Z,10.23
2019-03-22T01:07:43.807Z,10.22
2019-03-22T01:08:43.792Z,10.20
2019-03-22T01:09:43.783Z,10.20
2019-03-22T01:10:43.770Z,10.18
2019-03-22T01:11:43.759Z,10.16
2019-03-22T01:12:43.759Z,10.13
2019-03-22T01:13:43.738Z,10.13
2019-03-22T01:14:43.730Z,10.11
2019-03-22T01:15:43.718Z,10.10
2019-03-22T01:16:43.705Z,10.09
2019-03-22T01:17:43.694Z,10.08
2019-03-22T01:18:43.694Z,10.07
2019-03-22T01:19:43.672Z,10.06
2019-03-22T01:20:43.661Z,10.05
2019-03-22T01:21:43.653Z,10.03
2019-03-22T01:22:43.641Z,10.03
2019-03-22T01:23:43.628Z,10.01
2019-03-22T01:24:43.628Z,10.01
2019-03-22T01:25:43.607Z,10.00
2019-03-22T01:26:43.595Z,9.99
2019-03-22T01:27:43.586Z,9.98
2019-03-22T01:28:43.574Z,9.96
2019-03-22T01:29:43.564Z,9.96
2019-03-22T01:30:43.564Z,9.95
2019-03-22T01:31:43.550Z,9.95
2019-03-22T01:32:43.530Z,9.94
2019-03-22T01:33:43.522Z,9.94
2019-03-22T01:34:43.509Z,9.94
2019-03-22T01:35:43.499Z,9.95
2019-03-22T01:36:43.499Z,9.93
2019-03-22T01:37:43.478Z,9.94
2019-03-22T01:38:43.466Z,9.94
2019-03-22T01:39:43.457Z,9.91
2019-03-22T01:40:43.445Z,9.90
2019-03-22T01:41:43.434Z,9.89
2019-03-22T01:42:43.442Z,9.87
2019-03-22T01:43:43.412Z,9.86
2019-03-22T01:44:43.402Z,9.83
2019-03-22T01:45:43.391Z,9.81
2019-03-22T01:46:43.381Z,9.80
2019-03-22T01:47:43.371Z,9.79
2019-03-22T01:48:43.387Z,9.78
2019-03-22T01:49:43.349Z,9.77
2019-03-22T01:50:43.338Z,9.75
2019-03-22T01:51:43.328Z,9.75
2019-03-22T01:52:43.316Z,9.73
2019-03-22T01:53:43.308Z,9.72
2019-03-22T01:54:43.305Z,9.70
2019-03-22T01:55:43.284Z,9.69
2019-03-22T01:56:43.274Z,9.68
2019-03-22T01:57:52.282Z,9.66
2019-03-22T01:58:44.254Z,9.64
2019-03-22T01:59:43.247Z,9.62
2019-03-22T02:00:43.240Z,9.61
2019-03-22T02:01:43.220Z,9.60
2019-03-22T02:02:43.214Z,9.58
2019-03-22T02:03:43.199Z,9.57
2019-03-22T02:04:43.188Z,9.55
2019-03-22T02:05:43.179Z,9.52
2019-03-22T02:06:43.177Z,9.51
2019-03-22T02:07:43.156Z,9.50
2019-03-22T02:08:43.149Z,9.48
2019-03-22T02:09:43.135Z,9.47
2019-03-22T02:10:43.127Z,9.45
2019-03-22T02:11:43.114Z,9.44
2019-03-22T02:12:43.119Z,9.45
2019-03-22T02:13:43.094Z,9.43
2019-03-22T02:14:43.083Z,9.42
2019-03-22T02:15:43.071Z,9.40
2019-03-22T02:16:43.061Z,9.39
2019-03-22T02:17:43.051Z,9.36
2019-03-22T02:18:43.051Z,9.35
2019-03-22T02:19:43.029Z,9.34
2019-03-22T02:20:43.020Z,9.32
2019-03-22T02:21:43.008Z,9.31
2019-03-22T02:22:42.998Z,9.29
2019-03-22T02:23:42.987Z,9.27
2019-03-22T02:24:42.995Z,9.26
2019-03-22T02:25:42.968Z,9.24
2019-03-22T02:26:42.956Z,9.22
2019-03-22T02:27:42.955Z,9.20
2019-03-22T02:28:42.934Z,9.19
2019-03-22T02:29:44.483Z,9.16
2019-03-22T02:30:42.925Z,9.14
2019-03-22T02:31:42.904Z,9.11
2019-03-22T02:32:42.896Z,9.11
2019-03-22T02:33:42.905Z,9.10
2019-03-22T02:34:42.877Z,9.09
2019-03-22T02:35:42.858Z,9.06
2019-03-22T02:36:42.858Z,9.04
2019-03-22T02:37:42.846Z,9.03
2019-03-22T02:38:42.826Z,9.02
2019-03-22T02:39:42.917Z,9.02
2019-03-22T02:40:42.808Z,9.01
2019-03-22T02:41:42.793Z,9.00
2019-03-22T02:42:42.793Z,8.98
2019-03-22T02:43:42.776Z,8.97
2019-03-22T02:44:42.760Z,8.97
2019-03-22T02:45:42.749Z,8.97
2019-03-22T02:46:42.738Z,8.96
2019-03-22T02:47:42.730Z,8.95
2019-03-22T02:48:42.727Z,8.95
2019-03-22T02:49:42.706Z,8.95
2019-03-22T02:50:42.699Z,8.95
2019-03-22T02:51:42.682Z,8.95
2019-03-22T02:52:42.672Z,8.93
2019-03-22T02:53:42.663Z,8.93
2019-03-22T02:54:42.662Z,8.93
2019-03-22T02:55:42.665Z,8.93
2019-03-22T02:56:42.630Z,8.93
2019-03-22T02:57:42.629Z,8.94
2019-03-22T02:58:42.619Z,8.93
2019-03-22T02:59:42.596Z,8.94
2019-03-22T03:00:42.600Z,8.93
2019-03-22T03:01:42.575Z,8.94
2019-03-22T03:02:42.570Z,8.94
2019-03-22T03:03:42.552Z,8.95
2019-03-22T03:04:42.545Z,8.97
2019-03-22T03:05:42.529Z,8.97
2019-03-22T03:06:42.530Z,8.96
2019-03-22T03:07:42.508Z,8.98
2019-03-22T03:08:42.500Z,8.99
2019-03-22T03:09:42.496Z,9.00
2019-03-22T03:10:42.475Z,9.01
2019-03-22T03:11:42.465Z,9.03
2019-03-22T03:12:42.492Z,9.05
2019-03-22T03:13:42.445Z,9.06
2019-03-22T03:14:42.432Z,9.07
2019-03-22T03:15:42.424Z,9.09
2019-03-22T03:16:42.415Z,9.10
2019-03-22T03:17:42.409Z,9.12
2019-03-22T03:18:42.403Z,9.13
2019-03-22T03:19:42.383Z,9.14
2019-03-22T03:20:42.388Z,9.16
2019-03-22T03:21:42.369Z,9.16
2019-03-22T03:22:42.349Z,9.18
2019-03-22T03:23:42.333Z,9.19
2019-03-22T03:24:42.344Z,9.20
2019-03-22T03:25:42.315Z,9.21
2019-03-22T03:26:42.300Z,9.23
2019-03-22T03:27:42.292Z,9.24
2019-03-22T03:28:42.282Z,9.24
2019-03-22T03:29:42.272Z,9.25
2019-03-22T03:30:42.281Z,9.26
2019-03-22T03:31:42.246Z,9.28
2019-03-22T03:32:42.236Z,9.29
2019-03-22T03:33:42.233Z,9.27
2019-03-22T03:34:42.225Z,9.29
2019-03-22T03:35:42.203Z,9.28
2019-03-22T03:36:42.212Z,9.26
2019-03-22T03:37:42.180Z,9.24
2019-03-22T03:38:42.171Z,9.20
2019-03-22T03:39:42.160Z,9.18
2019-03-22T03:40:42.149Z,9.17
2019-03-22T03:41:42.138Z,9.17
2019-03-22T03:42:42.140Z,9.15
2019-03-22T03:43:42.134Z,9.15
2019-03-22T03:44:42.106Z,9.14
2019-03-22T03:45:42.095Z,9.15
2019-03-22T03:46:42.084Z,9.15
2019-03-22T03:47:42.074Z,9.16
2019-03-22T03:48:42.082Z,9.17
2019-03-22T03:49:42.053Z,9.18
2019-03-22T03:50:42.041Z,9.18
2019-03-22T03:51:42.032Z,9.19
2019-03-22T03:52:42.057Z,9.19
2019-03-22T03:53:42.023Z,9.17
2019-03-22T03:54:42.012Z,9.17
2019-03-22T03:55:41.990Z,9.17
2019-03-22T03:56:41.995Z,9.15
2019-03-22T03:57:41.967Z,9.16
2019-03-22T03:58:52.275Z,9.15
2019-03-22T03:59:42.953Z,9.14
2019-03-22T04:00:41.933Z,9.13
2019-03-22T04:01:41.919Z,9.13
2019-03-22T04:02:41.909Z,9.12
2019-03-22T04:03:41.898Z,9.10
2019-03-22T04:04:41.896Z,9.08
2019-03-22T04:05:41.889Z,9.08
2019-03-22T04:06:41.867Z,9.06
2019-03-22T04:07:41.859Z,9.07
2019-03-22T04:08:41.848Z,9.02
2019-03-22T04:09:41.834Z,9.02
2019-03-22T04:10:41.823Z,9.03
2019-03-22T04:11:41.823Z,9.03
2019-03-22T04:12:41.800Z,9.02
2019-03-22T04:13:41.790Z,9.03
2019-03-22T04:14:41.780Z,9.03
2019-03-22T04:15:41.767Z,9.02
2019-03-22T04:16:41.770Z,9.00
2019-03-22T04:17:41.766Z,8.98
2019-03-22T04:18:41.748Z,8.96
2019-03-22T04:19:41.725Z,8.93
2019-03-22T04:20:41.714Z,8.92
2019-03-22T04:21:41.707Z,8.90
2019-03-22T04:22:41.702Z,8.87
2019-03-22T04:23:41.692Z,8.84
2019-03-22T04:24:41.681Z,8.84
2019-03-22T04:25:41.661Z,8.82
2019-03-22T04:26:41.652Z,8.82
2019-03-22T04:27:41.646Z,8.83
2019-03-22T04:28:41.628Z,8.82
2019-03-22T04:29:41.635Z,8.80
2019-03-22T04:30:41.604Z,8.80
2019-03-22T04:31:41.593Z,8.80
2019-03-22T04:32:41.582Z,8.82
2019-03-22T04:33:41.572Z,8.83
2019-03-22T04:34:41.579Z,8.84
2019-03-22T04:35:41.560Z,8.85
2019-03-22T04:36:41.543Z,8.84
2019-03-22T04:37:41.556Z,8.82
2019-03-22T04:38:41.517Z,8.80
2019-03-22T04:39:41.506Z,8.79
2019-03-22T04:40:41.500Z,8.78
2019-03-22T04:41:41.504Z,8.76
2019-03-22T04:42:41.473Z,8.74
2019-03-22T04:43:41.461Z,8.74
2019-03-22T04:44:41.453Z,8.74
2019-03-22T04:45:41.440Z,8.72
2019-03-22T04:46:41.430Z,8.73
2019-03-22T04:47:41.438Z,8.74
2019-03-22T04:48:41.415Z,8.76
2019-03-22T04:49:41.398Z,8.77
2019-03-22T04:50:41.387Z,8.77
2019-03-22T04:51:41.380Z,8.80
2019-03-22T04:52:41.366Z,8.80
2019-03-22T04:53:41.368Z,8.80
2019-03-22T04:54:41.345Z,8.81
2019-03-22T04:55:41.335Z,8.83
2019-03-22T04:56:41.323Z,8.83
2019-03-22T04:57:41.312Z,8.85
2019-03-22T04:58:41.302Z,8.86
2019-03-22T04:59:41.300Z,8.87
2019-03-22T05:00:41.283Z,8.87
2019-03-22T05:01:41.275Z,8.88
2019-03-22T05:02:41.259Z,8.88
2019-03-22T05:03:41.247Z,8.90
2019-03-22T05:04:41.259Z,8.90
2019-03-22T05:05:41.247Z,8.89
2019-03-22T05:06:41.217Z,8.90
2019-03-22T05:07:41.203Z,8.90
2019-03-22T05:08:41.193Z,8.88
2019-03-22T05:09:41.182Z,8.88
2019-03-22T05:10:41.175Z,8.88
2019-03-22T05:11:41.169Z,8.83
2019-03-22T05:12:41.149Z,8.81
2019-03-22T05:13:41.141Z,8.80
2019-03-22T05:14:41.129Z,8.78
2019-03-22T05:15:41.118Z,8.76
2019-03-22T05:16:41.106Z,8.75
2019-03-22T05:17:41.109Z,8.74
2019-03-22T05:18:43.911Z,8.74
2019-03-22T05:19:41.073Z,8.76
2019-03-22T05:20:41.069Z,8.78
2019-03-22T05:21:41.052Z,8.79
2019-03-22T05:22:41.041Z,8.79
2019-03-22T05:23:41.046Z,8.82
2019-03-22T05:24:41.021Z,8.81
2019-03-22T05:25:41.009Z,8.81
2019-03-22T05:26:40.998Z,8.81
2019-03-22T05:27:40.987Z,8.81
2019-03-22T05:28:40.979Z,8.83
2019-03-22T05:29:40.983Z,8.84
2019-03-22T05:30:40.954Z,8.84
2019-03-22T05:31:40.944Z,8.84
2019-03-22T05:32:40.941Z,8.85
2019-03-22T05:33:40.922Z,8.83
2019-03-22T05:34:40.911Z,8.81
2019-03-22T05:35:40.910Z,8.80
2019-03-22T05:36:40.890Z,8.79
2019-03-22T05:37:40.878Z,8.80
2019-03-22T05:38:40.870Z,8.80
2019-03-22T05:39:40.856Z,8.79
2019-03-22T05:40:40.847Z,8.80
2019-03-22T05:41:40.845Z,8.79
2019-03-22T05:42:40.824Z,8.78
2019-03-22T05:43:40.813Z,8.79
2019-03-22T05:44:40.801Z,8.79
2019-03-22T05:45:40.793Z,8.81
2019-03-22T05:46:40.780Z,8.81
2019-03-22T05:47:40.788Z,8.82
2019-03-22T05:48:40.760Z,8.83
2019-03-22T05:49:40.748Z,8.84
2019-03-22T05:50:40.745Z,8.85
2019-03-22T05:51:40.727Z,8.87
2019-03-22T05:52:40.716Z,8.86
2019-03-22T05:53:40.715Z,8.87
2019-03-22T05:54:40.694Z,8.89
2019-03-22T05:55:40.683Z,8.88
2019-03-22T05:56:40.675Z,8.90
2019-03-22T05:57:40.662Z,8.90
2019-03-22T05:58:40.652Z,8.91
2019-03-22T05:59:42.674Z,8.90
2019-03-22T06:00:40.633Z,8.90
2019-03-22T06:01:40.619Z,8.90
2019-03-22T06:02:40.608Z,8.89
2019-03-22T06:03:40.598Z,8.88
2019-03-22T06:04:40.586Z,8.89
2019-03-22T06:05:40.592Z,8.90
2019-03-22T06:06:40.565Z,8.93
2019-03-22T06:07:40.570Z,8.97
2019-03-22T06:08:40.545Z,9.00
2019-03-22T06:09:40.533Z,9.06
2019-03-22T06:10:40.522Z,9.09
2019-03-22T06:11:40.523Z,9.14
2019-03-22T06:12:40.501Z,9.18
2019-03-22T06:13:40.491Z,9.21
2019-03-22T06:14:40.480Z,9.25
2019-03-22T06:15:40.469Z,9.27
2019-03-22T06:16:40.458Z,9.31
2019-03-22T06:17:51.145Z,9.35
2019-03-22T06:18:41.438Z,9.38
2019-03-22T06:19:40.425Z,9.43
2019-03-22T06:20:40.414Z,9.45
2019-03-22T06:21:40.404Z,9.49
2019-03-22T06:22:40.392Z,9.51
2019-03-22T06:23:40.401Z,9.52
2019-03-22T06:24:40.371Z,9.52
2019-03-22T06:25:40.360Z,9.52
2019-03-22T06:26:40.349Z,9.52
2019-03-22T06:27:40.340Z,9.53
2019-03-22T06:28:40.327Z,9.54
2019-03-22T06:29:40.328Z,9.53
2019-03-22T06:30:40.314Z,9.53
2019-03-22T06:31:40.295Z,9.56
2019-03-22T06:32:40.283Z,9.58
2019-03-22T06:33:40.271Z,9.60
2019-03-22T06:34:40.262Z,9.64
2019-03-22T06:35:40.261Z,9.69
2019-03-22T06:36:40.239Z,9.74
2019-03-22T06:37:40.228Z,9.81
2019-03-22T06:38:40.218Z,9.85
2019-03-22T06:39:40.207Z,9.92
2019-03-22T06:40:40.196Z,10.00
2019-03-22T06:41:40.206Z,10.07
2019-03-22T06:42:40.174Z,10.16
2019-03-22T06:43:40.166Z,10.25
2019-03-22T06:44:40.152Z,10.36
2019-03-22T06:45:40.142Z,10.45
2019-03-22T06:46:40.131Z,10.53
2019-03-22T06:47:40.132Z,10.61
2019-03-22T06:48:40.110Z,10.69
2019-03-22T06:49:40.099Z,10.74
2019-03-22T06:50:40.089Z,10.76
2019-03-22T06:51:40.078Z,10.82
2019-03-22T06:52:40.070Z,10.87
2019-03-22T06:53:40.067Z,10.91
2019-03-22T06:54:40.046Z,10.93
2019-03-22T06:55:40.036Z,10.93
2019-03-22T06:56:40.024Z,10.93
2019-03-22T06:57:40.013Z,10.97
2019-03-22T06:58:40.008Z,11.02
2019-03-22T06:59:40.013Z,11.01
2019-03-22T07:00:39.982Z,11.00
2019-03-22T07:01:39.972Z,10.98
2019-03-22T07:02:39.966Z,10.94
2019-03-22T07:03:39.955Z,10.92
2019-03-22T07:04:39.939Z,10.91
2019-03-22T07:05:39.941Z,10.94
2019-03-22T07:06:39.919Z,10.95
2019-03-22T07:07:39.911Z,10.97
2019-03-22T07:08:39.896Z,11.00
2019-03-22T07:09:39.896Z,10.97
2019-03-22T07:10:39.876Z,10.95
2019-03-22T07:11:41.867Z,10.95
2019-03-22T07:12:39.854Z,10.97
2019-03-22T07:13:39.865Z,10.99
2019-03-22T07:14:39.834Z,11.02
2019-03-22T07:15:39.844Z,11.08
2019-03-22T07:16:39.811Z,11.16
2019-03-22T07:17:39.811Z,11.31
2019-03-22T07:18:39.793Z,11.54
2019-03-22T07:19:39.782Z,11.80
2019-03-22T07:20:39.772Z,12.02
2019-03-22T07:21:39.764Z,12.21
2019-03-22T07:22:39.750Z,12.39
2019-03-22T07:23:39.755Z,12.55
2019-03-22T07:24:39.723Z,12.71
2019-03-22T07:25:39.713Z,12.85
2019-03-22T07:26:39.701Z,12.99
2019-03-22T07:27:39.692Z,13.18
2019-03-22T07:28:39.680Z,13.36
2019-03-22T07:29:39.687Z,13.54
2019-03-22T07:30:39.658Z,13.71
2019-03-22T07:31:39.649Z,13.93
2019-03-22T07:32:39.638Z,14.14
2019-03-22T07:33:39.629Z,14.33
2019-03-22T07:34:39.616Z,14.54
2019-03-22T07:35:39.618Z,14.79
2019-03-22T07:36:39.595Z,15.02
2019-03-22T07:37:39.591Z,15.20
2019-03-22T07:38:39.575Z,15.29
2019-03-22T07:39:39.564Z,15.39
2019-03-22T07:40:39.552Z,15.55
2019-03-22T07:41:39.551Z,15.74
2019-03-22T07:42:39.530Z,15.94
2019-03-22T07:43:39.545Z,15.99
2019-03-22T07:44:39.506Z,16.02
2019-03-22T07:45:39.496Z,16.10
2019-03-22T07:46:39.485Z,16.08
2019-03-22T07:47:39.497Z,16.04
2019-03-22T07:48:39.464Z,16.00
2019-03-22T07:49:39.454Z,16.01
2019-03-22T07:50:39.443Z,16.03
2019-03-22T07:51:39.439Z,16.04
2019-03-22T07:52:39.438Z,16.02
2019-03-22T07:53:39.426Z,15.97
2019-03-22T07:54:39.397Z,15.99
2019-03-22T07:55:39.392Z,16.12
2019-03-22T07:56:39.390Z,16.22
2019-03-22T07:57:39.369Z,16.36
2019-03-22T07:58:39.357Z,16.58
2019-03-22T07:59:39.369Z,16.78
2019-03-22T08:00:39.335Z,16.90
2019-03-22T08:01:39.325Z,17.16
2019-03-22T08:02:39.313Z,17.34
2019-03-22T08:03:39.302Z,17.76
2019-03-22T08:04:39.300Z,18.07
2019-03-22T08:05:50.582Z,18.70
2019-03-22T08:06:40.270Z,19.21
2019-03-22T08:07:39.261Z,19.28
2019-03-22T08:08:39.249Z,19.30
2019-03-22T08:09:39.276Z,19.44
2019-03-22T08:10:39.245Z,19.64
2019-03-22T08:11:39.235Z,19.69
2019-03-22T08:12:39.205Z,19.80
2019-03-22T08:13:39.210Z,20.04
2019-03-22T08:14:39.192Z,20.51
2019-03-22T08:15:39.171Z,21.25
2019-03-22T08:16:39.160Z,21.83
2019-03-22T08:17:39.169Z,22.51
2019-03-22T08:18:39.138Z,23.25
2019-03-22T08:19:39.160Z,23.84
2019-03-22T08:20:39.180Z,24.43
2019-03-22T08:21:39.112Z,25.03
2019-03-22T08:22:39.094Z,25.55
2019-03-22T08:23:39.104Z,26.03
2019-03-22T08:24:39.085Z,26.54
2019-03-22T08:25:39.075Z,26.99
2019-03-22T08:26:39.090Z,27.07
2019-03-22T08:27:39.040Z,27.30
2019-03-22T08:28:39.057Z,27.64
2019-03-22T08:29:39.047Z,28.08
2019-03-22T08:30:43.272Z,28.52
2019-03-22T08:31:38.996Z,28.89
2019-03-22T08:32:38.986Z,29.24
2019-03-22T08:33:38.975Z,29.53
2019-03-22T08:34:38.965Z,29.76
2019-03-22T08:35:38.966Z,29.98
2019-03-22T08:36:38.952Z,30.19
2019-03-22T08:37:38.932Z,30.42
2019-03-22T08:38:38.936Z,30.61
2019-03-22T08:39:38.910Z,30.86
2019-03-22T08:40:38.904Z,31.07
2019-03-22T08:41:38.940Z,31.26
2019-03-22T08:42:38.912Z,31.42
2019-03-22T08:43:38.868Z,31.54
2019-03-22T08:44:38.879Z,31.73
2019-03-22T08:45:38.846Z,31.94
2019-03-22T08:46:38.859Z,32.14
2019-03-22T08:47:38.865Z,32.37
2019-03-22T08:48:38.814Z,32.52
2019-03-22T08:49:38.948Z,32.65
2019-03-22T08:50:38.813Z,32.74
2019-03-22T08:51:38.806Z,32.83
2019-03-22T08:52:38.781Z,32.92
2019-03-22T08:53:38.768Z,33.06
2019-03-22T08:54:38.747Z,33.19
2019-03-22T08:55:38.736Z,33.33
2019-03-22T08:56:38.728Z,33.43
2019-03-22T08:57:38.732Z,33.54
2019-03-22T08:58:38.713Z,33.62
2019-03-22T08:59:38.702Z,33.67
2019-03-22T09:00:39.861Z,33.70
2019-03-22T09:01:38.671Z,33.74
2019-03-22T09:02:38.670Z,33.74
2019-03-22T09:03:38.650Z,33.69
2019-03-22T09:04:38.644Z,33.58
2019-03-22T09:05:38.655Z,33.39
2019-03-22T09:06:38.618Z,33.20
2019-03-22T09:07:38.607Z,32.95
2019-03-22T09:08:38.597Z,32.63
2019-03-22T09:09:41.672Z,32.42
2019-03-22T09:10:38.625Z,32.31
2019-03-22T09:11:38.602Z,32.20
2019-03-22T09:12:38.634Z,32.08
2019-03-22T09:13:38.542Z,32.00
2019-03-22T09:14:38.557Z,31.87
2019-03-22T09:15:42.030Z,31.77
2019-03-22T09:16:38.511Z,31.65
2019-03-22T09:17:38.517Z,31.56
2019-03-22T09:18:38.541Z,31.50
2019-03-22T09:19:38.477Z,31.44
2019-03-22T09:20:38.525Z,31.42
2019-03-22T09:21:38.455Z,31.36
2019-03-22T09:22:38.448Z,31.28
2019-03-22T09:23:38.453Z,31.10
2019-03-22T09:24:39.535Z,30.94
2019-03-22T09:25:38.453Z,30.73
2019-03-22T09:26:47.708Z,30.52
2019-03-22T09:27:39.389Z,30.28
2019-03-22T09:28:38.398Z,30.04
2019-03-22T09:29:38.437Z,29.72
2019-03-22T09:30:38.357Z,29.43
2019-03-22T09:31:38.395Z,29.19
2019-03-22T09:32:38.386Z,29.01
2019-03-22T09:33:38.324Z,28.87
2019-03-22T09:34:38.313Z,28.75
2019-03-22T09:35:38.313Z,28.62
2019-03-22T09:36:38.294Z,28.51
2019-03-22T09:37:38.287Z,28.41
2019-03-22T09:38:38.270Z,28.34
2019-03-22T09:39:38.261Z,28.21
2019-03-22T09:40:38.284Z,28.06
2019-03-22T09:41:38.249Z,27.91
2019-03-22T09:42:38.244Z,27.80
2019-03-22T09:43:38.219Z,27.71
2019-03-22T09:44:43.224Z,27.68
2019-03-22T09:45:39.193Z,27.70
2019-03-22T09:46:38.195Z,27.72
2019-03-22T09:47:38.184Z,27.73
2019-03-22T09:48:38.181Z,27.73
2019-03-22T09:49:38.166Z,27.73
2019-03-22T09:50:38.146Z,27.70
2019-03-22T09:51:38.132Z,27.67
2019-03-22T09:52:38.125Z,27.65
2019-03-22T09:53:38.119Z,27.63
2019-03-22T09:54:38.113Z,27.61
2019-03-22T09:55:38.086Z,27.59
2019-03-22T09:56:46.798Z,27.57
2019-03-22T09:57:39.064Z,27.55
2019-03-22T09:58:38.099Z,27.51
2019-03-22T09:59:38.062Z,27.47
2019-03-22T10:00:38.120Z,27.47
2019-03-22T10:01:38.021Z,27.47
2019-03-22T10:02:38.070Z,27.51
2019-03-22T10:03:38.003Z,27.54
2019-03-22T10:04:38.018Z,27.56
2019-03-22T10:05:37.988Z,27.64
2019-03-22T10:06:37.967Z,27.70
2019-03-22T10:07:37.981Z,27.72
2019-03-22T10:08:37.944Z,27.79
2019-03-22T10:09:37.976Z,27.83
2019-03-22T10:10:37.966Z,27.89
2019-03-22T10:11:37.934Z,27.97
2019-03-22T10:12:37.900Z,27.99
2019-03-22T10:13:37.890Z,28.04
2019-03-22T10:14:37.906Z,28.09
2019-03-22T10:15:37.879Z,28.14
2019-03-22T10:16:37.861Z,28.23
2019-03-22T10:17:37.860Z,28.32
2019-03-22T10:18:37.841Z,28.37
2019-03-22T10:19:37.826Z,28.39
2019-03-22T10:20:37.828Z,28.41
2019-03-22T10:21:37.895Z,28.41
2019-03-22T10:22:37.804Z,28.45
2019-03-22T10:23:37.817Z,28.47
2019-03-22T10:24:37.846Z,28.51
2019-03-22T10:25:37.788Z,28.50
2019-03-22T10:26:37.756Z,28.52
2019-03-22T10:27:37.744Z,28.55
2019-03-22T10:28:37.768Z,28.59
2019-03-22T10:29:37.795Z,28.58
2019-03-22T10:30:37.738Z,28.58
2019-03-22T10:31:38.012Z,28.56
2019-03-22T10:32:37.701Z,28.53
2019-03-22T10:33:37.712Z,28.44
2019-03-22T10:34:39.719Z,28.32
2019-03-22T10:35:37.674Z,28.16
2019-03-22T10:36:37.687Z,27.94
2019-03-22T10:37:37.633Z,27.54
2019-03-22T10:38:37.621Z,27.01
2019-03-22T10:39:37.614Z,26.46
2019-03-22T10:40:37.600Z,25.99
2019-03-22T10:41:37.637Z,25.62
2019-03-22T10:42:37.644Z,25.35
2019-03-22T10:43:37.567Z,25.13
2019-03-22T10:44:39.360Z,24.94
2019-03-22T10:45:37.607Z,24.78
2019-03-22T10:46:37.563Z,24.62
2019-03-22T10:47:37.535Z,24.48
2019-03-22T10:48:37.516Z,24.34
2019-03-22T10:49:37.547Z,24.23
2019-03-22T10:50:37.494Z,24.12
2019-03-22T10:51:37.486Z,24.03
2019-03-22T10:52:37.497Z,23.92
2019-03-22T10:53:37.475Z,23.83
2019-03-22T10:54:37.450Z,23.76
2019-03-22T10:55:37.442Z,23.71
2019-03-22T10:56:37.431Z,23.63
2019-03-22T10:57:40.085Z,23.57
2019-03-22T10:58:37.407Z,23.50
2019-03-22T10:59:37.415Z,23.47
2019-03-22T11:00:37.409Z,23.40
2019-03-22T11:01:48.598Z,23.34
2019-03-22T11:02:38.365Z,23.22
2019-03-22T11:03:37.441Z,23.15
2019-03-22T11:04:37.343Z,23.09
2019-03-22T11:05:37.347Z,23.00
2019-03-22T11:06:37.320Z,22.91
2019-03-22T11:07:37.309Z,22.82
2019-03-22T11:08:37.302Z,22.75
2019-03-22T11:09:37.287Z,22.68
2019-03-22T11:10:37.277Z,22.58
2019-03-22T11:11:37.275Z,22.49
2019-03-22T11:12:37.254Z,22.40
2019-03-22T11:13:37.243Z,22.33
2019-03-22T11:14:37.232Z,22.21
2019-03-22T11:15:37.224Z,22.15
2019-03-22T11:16:37.213Z,22.08
2019-03-22T11:17:37.211Z,22.03
2019-03-22T11:18:37.761Z,21.99
2019-03-22T11:19:37.183Z,21.93
2019-03-22T11:20:37.175Z,21.86
2019-03-22T11:21:37.156Z,21.80
2019-03-22T11:22:37.148Z,21.76
2019-03-22T11:23:37.153Z,21.69
2019-03-22T11:24:37.125Z,21.66
2019-03-22T11:25:37.113Z,21.60
2019-03-22T11:26:37.106Z,21.55
2019-03-22T11:27:37.094Z,21.54
2019-03-22T11:28:37.083Z,21.52
2019-03-22T11:29:37.090Z,21.51
2019-03-22T11:30:37.060Z,21.48
2019-03-22T11:31:40.072Z,21.46
2019-03-22T11:32:37.040Z,21.43
2019-03-22T11:33:37.028Z,21.41
2019-03-22T11:34:37.019Z,21.37
2019-03-22T11:35:37.242Z,21.34
2019-03-22T11:36:36.996Z,21.32
2019-03-22T11:37:36.988Z,21.29
2019-03-22T11:38:36.974Z,21.28
2019-03-22T11:39:36.964Z,21.28
2019-03-22T11:40:36.954Z,21.25
2019-03-22T11:41:36.960Z,21.25
2019-03-22T11:42:36.933Z,21.24
2019-03-22T11:43:36.921Z,21.23
2019-03-22T11:44:36.910Z,21.21
2019-03-22T11:45:36.900Z,21.20
2019-03-22T11:46:36.897Z,21.20
2019-03-22T11:47:36.898Z,21.20
2019-03-22T11:48:36.868Z,21.21
2019-03-22T11:49:36.859Z,21.23
2019-03-22T11:50:36.846Z,21.23
2019-03-22T11:51:36.838Z,21.24
2019-03-22T11:52:36.825Z,21.24
2019-03-22T11:53:36.825Z,21.25
2019-03-22T11:54:36.804Z,21.27
2019-03-22T11:55:36.793Z,21.28
2019-03-22T11:56:36.786Z,21.28
2019-03-22T11:57:36.772Z,21.28
2019-03-22T11:58:36.764Z,21.29
2019-03-22T11:59:36.762Z,21.29
2019-03-22T12:00:36.741Z,21.31
2019-03-22T12:01:36.730Z,21.32
2019-03-22T12:02:36.718Z,21.32
2019-03-22T12:03:36.721Z,21.31
2019-03-22T12:04:36.696Z,21.30
2019-03-22T12:05:40.467Z,21.30
2019-03-22T12:06:36.675Z,21.33
2019-03-22T12:07:36.666Z,21.35
2019-03-22T12:08:36.654Z,21.38
2019-03-22T12:09:36.645Z,21.42
2019-03-22T12:10:36.632Z,21.44
2019-03-22T12:11:36.636Z,21.45
2019-03-22T12:12:36.618Z,21.47
2019-03-22T12:13:36.599Z,21.47
2019-03-22T12:14:36.592Z,21.48
2019-03-22T12:15:36.578Z,21.52
2019-03-22T12:16:36.567Z,21.54
2019-03-22T12:17:36.570Z,21.57
2019-03-22T12:18:36.561Z,21.59
2019-03-22T12:19:36.535Z,21.61
2019-03-22T12:20:36.525Z,21.60
2019-03-22T12:21:36.513Z,21.59
2019-03-22T12:22:38.484Z,21.59
2019-03-22T12:23:36.518Z,21.62
2019-03-22T12:24:36.488Z,21.63
2019-03-22T12:25:36.473Z,21.65
2019-03-22T12:26:36.463Z,21.68
2019-03-22T12:27:36.994Z,21.68
2019-03-22T12:28:36.437Z,21.72
2019-03-22T12:29:36.446Z,21.74
2019-03-22T12:30:36.415Z,21.74
2019-03-22T12:31:36.404Z,21.76
2019-03-22T12:32:36.393Z,21.77
2019-03-22T12:33:36.382Z,21.78
2019-03-22T12:34:36.371Z,21.79
2019-03-22T12:35:36.381Z,21.80
2019-03-22T12:36:36.348Z,21.83
2019-03-22T12:37:36.354Z,21.83
2019-03-22T12:38:36.327Z,21.83
2019-03-22T12:39:36.317Z,21.83
2019-03-22T12:40:36.305Z,21.85
2019-03-22T12:41:36.304Z,21.86
2019-03-22T12:42:36.283Z,21.86
2019-03-22T12:43:36.271Z,21.88
2019-03-22T12:44:36.261Z,21.89
2019-03-22T12:45:36.249Z,21.90
2019-03-22T12:46:36.241Z,21.90
2019-03-22T12:47:36.239Z,21.90
2019-03-22T12:48:36.216Z,21.89
2019-03-22T12:49:36.206Z,21.88
2019-03-22T12:50:36.195Z,21.89
2019-03-22T12:51:36.183Z,21.88
2019-03-22T12:52:36.173Z,21.94
2019-03-22T12:53:36.180Z,21.94
2019-03-22T12:54:36.150Z,21.95
2019-03-22T12:55:36.139Z,21.95
2019-03-22T12:56:36.133Z,21.95
2019-03-22T12:57:36.117Z,21.94
2019-03-22T12:58:36.107Z,21.94
2019-03-22T12:59:36.109Z,21.90
2019-03-22T13:00:36.086Z,21.87
2019-03-22T13:01:36.073Z,21.86
2019-03-22T13:02:42.185Z,21.86